Time;durP1;ratioP1;P1;durP2;ratioP2;P2;SDS_P1;SDS_P2;PMS_P1;PMS_P2;Temp;Humidity;BMP_temperature;BMP_pressure;BME280_temperature;BME280_humidity;BME280_pressure;Samples;Min_cycle;Max_cycle;Signal;HPM_P1;HPM_P2
2021/05/12 00:01:02;;;;;;;;;;;23.70;42.50;;;;;;1564277;74;683;-69
2021/05/12 00:03:04;;;;;;;;;;;23.70;42.50;;;;;;1564505;74;751;-75
2021/05/12 00:05:06;;;;;;;;;;;23.70;42.40;;;;;;1566569;74;1172;-70
2021/05/12 00:07:08;;;;;;;;;;;23.70;42.60;;;;;;1563284;75;795;-72
2021/05/12 00:09:10;;;;;;;;;;;23.60;42.30;;;;;;1567852;75;1942;-69
2021/05/12 00:11:12;;;;;;;;;;;23.60;42.50;;;;;;1568834;74;766;-72
2021/05/12 00:13:14;;;;;;;;;;;23.70;42.60;;;;;;1564348;75;754;-71
2021/05/12 00:15:16;;;;;;;;;;;23.60;42.40;;;;;;1559746;75;1181;-68
2021/05/12 00:17:19;;;;;;;;;;;23.70;42.60;;;;;;1565782;74;811;-71
2021/05/12 00:19:22;;;;;;;;;;;23.70;42.60;;;;;;1566216;74;804;-72
2021/05/12 00:21:32;;;;;;;;;;;23.70;42.50;;;;;;1566215;75;1111;-71
2021/05/12 00:23:39;;;;;;;;;;;23.70;42.70;;;;;;1561181;74;1652;-73
2021/05/12 00:25:31;;;;;;;;;;;23.60;42.50;;;;;;1564933;75;1734;-77
2021/05/12 00:27:33;;;;;;;;;;;23.60;42.40;;;;;;1565552;75;771;-70
2021/05/12 00:29:35;;;;;;;;;;;23.70;42.60;;;;;;1566654;75;1938;-70
2021/05/12 00:31:37;;;;;;;;;;;23.70;42.40;;;;;;1568375;74;749;-70
2021/05/12 00:33:39;;;;;;;;;;;23.70;42.50;;;;;;1564459;74;752;-70
2021/05/12 00:35:41;;;;;;;;;;;23.70;42.50;;;;;;1562820;75;1033;-70
2021/05/12 00:37:42;;;;;;;;;;;23.70;42.50;;;;;;1560934;75;937;-70
2021/05/12 00:39:44;;;;;;;;;;;23.60;42.40;;;;;;1562300;75;787;-70
2021/05/12 00:41:46;;;;;;;;;;;23.60;42.50;;;;;;1567636;74;727;-72
2021/05/12 00:43:48;;;;;;;;;;;23.70;42.60;;;;;;1567789;74;1129;-72
2021/05/12 00:45:50;;;;;;;;;;;23.60;42.40;;;;;;1567034;75;749;-69
2021/05/12 00:47:52;;;;;;;;;;;23.60;42.50;;;;;;1567590;75;748;-70
2021/05/12 00:49:54;;;;;;;;;;;23.70;42.60;;;;;;1557566;75;1943;-69
2021/05/12 00:51:56;;;;;;;;;;;23.60;42.50;;;;;;1559941;74;784;-69
2021/05/12 00:53:58;;;;;;;;;;;23.70;42.50;;;;;;1569367;74;1125;-70
2021/05/12 00:56:00;;;;;;;;;;;23.70;42.50;;;;;;1561874;75;687;-70
2021/05/12 00:58:02;;;;;;;;;;;23.60;42.30;;;;;;1565898;75;680;-75
2021/05/12 01:00:08;;;;;;;;;;;23.60;42.30;;;;;;1575857;74;680;-71
2021/05/12 01:02:09;;;;;;;;;;;23.60;42.30;;;;;;1565924;75;703;-72
2021/05/12 01:04:11;;;;;;;;;;;23.60;42.20;;;;;;1562894;74;1199;-71
2021/05/12 01:06:26;;;;;;;;;;;23.60;42.40;;;;;;1569949;75;768;-71
2021/05/12 01:08:28;;;;;;;;;;;23.60;42.30;;;;;;1561082;74;823;-73
2021/05/12 01:10:31;;;;;;;;;;;23.60;42.20;;;;;;1564549;75;1918;-72
2021/05/12 01:12:33;;;;;;;;;;;23.70;42.20;;;;;;1572378;75;780;-71
2021/05/12 01:14:35;;;;;;;;;;;23.70;42.10;;;;;;1561232;75;1134;-71
2021/05/12 01:16:38;;;;;;;;;;;23.70;42.10;;;;;;1571970;75;725;-71
2021/05/12 01:18:40;;;;;;;;;;;23.70;41.90;;;;;;1562988;75;781;-71
2021/05/12 01:20:49;;;;;;;;;;;23.60;41.90;;;;;;1561601;74;818;-70
2021/05/12 01:22:51;;;;;;;;;;;23.70;41.80;;;;;;1566139;75;684;-70
2021/05/12 01:24:53;;;;;;;;;;;23.60;41.70;;;;;;1564562;75;1117;-70
2021/05/12 01:26:55;;;;;;;;;;;23.70;41.90;;;;;;1563497;74;676;-72
2021/05/12 01:28:57;;;;;;;;;;;23.70;41.90;;;;;;1575423;75;1942;-75
2021/05/12 01:31:02;;;;;;;;;;;23.70;42.00;;;;;;1565757;74;840;-69
2021/05/12 01:33:04;;;;;;;;;;;23.70;42.00;;;;;;1562112;74;877;-70
2021/05/12 01:35:10;;;;;;;;;;;23.70;41.80;;;;;;1550196;75;1117;-70
2021/05/12 01:37:12;;;;;;;;;;;23.70;41.70;;;;;;1560545;74;712;-72
2021/05/12 01:39:14;;;;;;;;;;;23.70;41.70;;;;;;1565110;74;809;-74
2021/05/12 01:41:16;;;;;;;;;;;23.60;41.50;;;;;;1549539;74;714;-69
2021/05/12 01:43:18;;;;;;;;;;;23.70;41.70;;;;;;1568422;74;733;-72
2021/05/12 01:45:20;;;;;;;;;;;23.60;41.40;;;;;;1566505;75;1108;-69
2021/05/12 01:47:21;;;;;;;;;;;23.60;41.60;;;;;;1569571;75;731;-70
2021/05/12 01:49:26;;;;;;;;;;;23.70;41.80;;;;;;1567503;74;1937;-69
2021/05/12 01:51:27;;;;;;;;;;;23.60;41.60;;;;;;1560988;74;1668;-70
2021/05/12 01:53:29;;;;;;;;;;;23.60;41.60;;;;;;1567165;74;670;-74
2021/05/12 01:55:31;;;;;;;;;;;23.70;41.70;;;;;;1566439;75;1136;-72
2021/05/12 01:57:32;;;;;;;;;;;23.60;41.70;;;;;;1564960;74;754;-74
2021/05/12 01:59:35;;;;;;;;;;;23.60;41.80;;;;;;1562067;75;752;-72
2021/05/12 02:01:37;;;;;;;;;;;23.60;41.60;;;;;;1576148;74;813;-70
2021/05/12 02:03:39;;;;;;;;;;;23.60;41.70;;;;;;1544321;76;715;-71
2021/05/12 02:05:42;;;;;;;;;;;23.60;41.50;;;;;;1567369;73;218573;-54
2021/05/12 02:07:44;;;;;;;;;;;23.60;41.50;;;;;;1615118;72;802;-56
2021/05/12 02:09:48;;;;;;;;;;;23.60;41.50;;;;;;1611831;73;1925;-55
2021/05/12 02:11:49;;;;;;;;;;;23.60;41.50;;;;;;1602812;72;752;-53
2021/05/12 02:13:51;;;;;;;;;;;23.50;41.50;;;;;;1619525;71;789;-54
2021/05/12 02:15:53;;;;;;;;;;;23.60;41.30;;;;;;1615077;72;731;-56
2021/05/12 02:17:55;;;;;;;;;;;23.60;41.40;;;;;;1621861;71;705;-56
2021/05/12 02:19:57;;;;;;;;;;;23.60;41.50;;;;;;1621225;72;1119;-55
2021/05/12 02:21:59;;;;;;;;;;;23.50;41.70;;;;;;1615896;71;778;-56
2021/05/12 02:24:01;;;;;;;;;;;23.60;41.60;;;;;;1621653;71;931;-55
2021/05/12 02:26:02;;;;;;;;;;;23.60;41.50;;;;;;1605205;71;678;-56
2021/05/12 02:28:04;;;;;;;;;;;23.60;41.60;;;;;;1614100;72;718;-53
2021/05/12 02:30:07;;;;;;;;;;;23.60;41.60;;;;;;1619192;72;1907;-53
2021/05/12 02:32:09;;;;;;;;;;;23.50;41.60;;;;;;1621224;72;720;-51
2021/05/12 02:34:11;;;;;;;;;;;23.60;41.50;;;;;;1621253;72;715;-53
2021/05/12 02:36:13;;;;;;;;;;;23.60;41.60;;;;;;1612953;72;771;-57
2021/05/12 02:38:14;;;;;;;;;;;23.60;41.60;;;;;;1622136;72;716;-55
2021/05/12 02:40:17;;;;;;;;;;;23.60;41.50;;;;;;1615499;72;1137;-56
2021/05/12 02:42:19;;;;;;;;;;;23.60;41.50;;;;;;1623290;71;753;-56
2021/05/12 02:44:21;;;;;;;;;;;23.60;41.40;;;;;;1624145;71;807;-56
2021/05/12 02:46:22;;;;;;;;;;;23.60;41.50;;;;;;1623424;72;832;-55
2021/05/12 02:48:24;;;;;;;;;;;23.60;41.50;;;;;;1621841;71;839;-56
2021/05/12 02:50:39;;;;;;;;;;;23.60;41.50;;;;;;1623581;72;1925;-56
2021/05/12 02:52:41;;;;;;;;;;;23.70;41.50;;;;;;1615076;72;706;-56
2021/05/12 02:54:43;;;;;;;;;;;23.70;41.60;;;;;;1619149;71;778;-55
2021/05/12 02:56:45;;;;;;;;;;;23.60;41.50;;;;;;1609336;71;772;-56
2021/05/12 02:58:47;;;;;;;;;;;23.60;41.20;;;;;;1621341;72;820;-55
2021/05/12 03:00:49;;;;;;;;;;;23.60;41.20;;;;;;1623040;71;1129;-56
2021/05/12 03:02:51;;;;;;;;;;;23.60;41.30;;;;;;1617142;72;750;-55
2021/05/12 03:04:53;;;;;;;;;;;23.60;41.20;;;;;;1606185;72;798;-52
2021/05/12 03:06:56;;;;;;;;;;;23.60;41.20;;;;;;1610564;71;754;-56
2021/05/12 03:08:58;;;;;;;;;;;23.60;41.10;;;;;;1618092;72;714;-56
2021/05/12 03:10:59;;;;;;;;;;;23.60;41.10;;;;;;1623673;71;1947;-55
2021/05/12 03:13:02;;;;;;;;;;;23.60;41.00;;;;;;1627215;72;718;-54
2021/05/12 03:15:06;;;;;;;;;;;23.70;41.20;;;;;;1612378;71;790;-56
2021/05/12 03:17:08;;;;;;;;;;;23.60;40.90;;;;;;1615556;71;723;-53
2021/05/12 03:19:09;;;;;;;;;;;23.60;41.20;;;;;;1616001;72;714;-55
2021/05/12 03:21:11;;;;;;;;;;;23.60;41.10;;;;;;1623225;72;1109;-55
2021/05/12 03:23:13;;;;;;;;;;;23.70;41.30;;;;;;1617899;72;644;-56
2021/05/12 03:25:15;;;;;;;;;;;23.60;41.10;;;;;;1617562;72;787;-53
2021/05/12 03:27:17;;;;;;;;;;;23.60;41.10;;;;;;1607363;71;690;-56
2021/05/12 03:29:19;;;;;;;;;;;23.60;41.10;;;;;;1619925;71;766;-56
2021/05/12 03:31:21;;;;;;;;;;;23.60;41.00;;;;;;1612301;71;1947;-56
2021/05/12 03:33:23;;;;;;;;;;;23.60;41.00;;;;;;1618752;71;766;-56
2021/05/12 03:35:25;;;;;;;;;;;23.60;41.00;;;;;;1617473;71;735;-52
2021/05/12 03:37:27;;;;;;;;;;;23.60;41.00;;;;;;1618799;72;755;-53
2021/05/12 03:39:29;;;;;;;;;;;23.60;41.00;;;;;;1621663;71;1076;-55
2021/05/12 03:41:30;;;;;;;;;;;23.60;40.90;;;;;;1618230;72;708;-56
2021/05/12 03:43:34;;;;;;;;;;;23.60;40.90;;;;;;1613041;72;666;-56
2021/05/12 03:45:35;;;;;;;;;;;23.60;40.80;;;;;;1612965;71;797;-55
2021/05/12 03:47:37;;;;;;;;;;;23.60;40.70;;;;;;1620608;71;744;-52
2021/05/12 03:49:39;;;;;;;;;;;23.60;40.70;;;;;;1616043;71;1092;-55
2021/05/12 03:51:41;;;;;;;;;;;23.60;40.70;;;;;;1606385;71;1929;-53
2021/05/12 03:53:43;;;;;;;;;;;23.60;40.70;;;;;;1610856;72;778;-56
2021/05/12 03:55:45;;;;;;;;;;;23.60;40.60;;;;;;1614866;71;788;-56
2021/05/12 03:57:47;;;;;;;;;;;23.60;40.60;;;;;;1614544;72;874;-55
2021/05/12 03:59:48;;;;;;;;;;;23.50;40.50;;;;;;1627651;72;1121;-55
2021/05/12 04:01:50;;;;;;;;;;;23.60;40.50;;;;;;1615754;71;663;-55
2021/05/12 04:03:52;;;;;;;;;;;23.50;40.70;;;;;;1605725;72;746;-53
2021/05/12 04:05:54;;;;;;;;;;;23.40;40.30;;;;;;1611326;72;750;-56
2021/05/12 04:07:56;;;;;;;;;;;23.40;40.80;;;;;;1620926;72;745;-56
2021/05/12 04:09:58;;;;;;;;;;;23.50;40.60;;;;;;1606509;71;1953;-56
2021/05/12 04:12:00;;;;;;;;;;;23.50;40.60;;;;;;1608387;71;881;-56
2021/05/12 04:14:02;;;;;;;;;;;23.50;40.50;;;;;;1603958;72;800;-56
2021/05/12 04:16:04;;;;;;;;;;;23.50;40.50;;;;;;1603914;72;746;-56
2021/05/12 04:18:06;;;;;;;;;;;23.50;40.40;;;;;;1611190;72;815;-55
2021/05/12 04:20:10;;;;;;;;;;;23.50;40.40;;;;;;1606335;72;1139;-55
2021/05/12 04:22:13;;;;;;;;;;;23.50;40.40;;;;;;1605086;72;673;-55
2021/05/12 04:24:15;;;;;;;;;;;23.50;40.30;;;;;;1609345;71;777;-53
2021/05/12 04:26:17;;;;;;;;;;;23.50;40.30;;;;;;1603112;72;801;-55
2021/05/12 04:28:19;;;;;;;;;;;23.50;40.20;;;;;;1619508;71;785;-56
2021/05/12 04:30:22;;;;;;;;;;;23.50;40.20;;;;;;1608371;71;1950;-55
2021/05/12 04:32:24;;;;;;;;;;;23.50;40.20;;;;;;1608449;71;693;-52
2021/05/12 04:34:26;;;;;;;;;;;23.50;40.40;;;;;;1614393;72;721;-56
2021/05/12 04:36:28;;;;;;;;;;;23.50;40.30;;;;;;1607011;71;776;-56
2021/05/12 04:38:30;;;;;;;;;;;23.50;40.40;;;;;;1610194;71;694;-56
2021/05/12 04:40:31;;;;;;;;;;;23.40;40.20;;;;;;1607243;72;1110;-55
2021/05/12 04:42:33;;;;;;;;;;;23.40;40.30;;;;;;1609773;72;724;-56
2021/05/12 04:44:35;;;;;;;;;;;23.40;40.20;;;;;;1604398;71;712;-55
2021/05/12 04:46:39;;;;;;;;;;;23.40;40.20;;;;;;1609858;71;722;-54
2021/05/12 04:48:41;;;;;;;;;;;23.40;40.20;;;;;;1606924;71;1027;-56
2021/05/12 04:50:42;;;;;;;;;;;23.40;40.20;;;;;;1604683;72;1946;-55
2021/05/12 04:52:44;;;;;;;;;;;23.40;40.30;;;;;;1605229;72;761;-56
2021/05/12 04:54:46;;;;;;;;;;;23.40;40.20;;;;;;1606460;71;802;-56
2021/05/12 04:56:49;;;;;;;;;;;23.40;40.30;;;;;;1601584;71;696;-56
2021/05/12 04:58:52;;;;;;;;;;;23.40;40.20;;;;;;1611550;72;745;-55
2021/05/12 05:00:54;;;;;;;;;;;23.40;40.20;;;;;;1609363;72;1119;-54
2021/05/12 05:02:56;;;;;;;;;;;23.40;40.20;;;;;;1613214;71;906;-53
2021/05/12 05:04:58;;;;;;;;;;;23.40;40.10;;;;;;1608682;71;713;-56
2021/05/12 05:07:00;;;;;;;;;;;23.50;40.20;;;;;;1619007;72;780;-55
2021/05/12 05:09:02;;;;;;;;;;;23.40;40.10;;;;;;1619047;72;932;-56
2021/05/12 05:11:03;;;;;;;;;;;23.40;40.20;;;;;;1616496;72;1931;-55
2021/05/12 05:13:05;;;;;;;;;;;23.40;40.20;;;;;;1615542;71;772;-55
2021/05/12 05:15:07;;;;;;;;;;;23.40;40.20;;;;;;1612521;71;720;-55
2021/05/12 05:17:10;;;;;;;;;;;23.30;40.30;;;;;;1612124;71;657;-55
2021/05/12 05:19:12;;;;;;;;;;;23.40;40.20;;;;;;1608512;71;679;-55
2021/05/12 05:21:15;;;;;;;;;;;23.40;40.10;;;;;;1611336;72;1076;-55
2021/05/12 05:23:17;;;;;;;;;;;23.40;40.10;;;;;;1610296;72;740;-55
2021/05/12 05:25:18;;;;;;;;;;;23.30;40.30;;;;;;1613747;71;805;-55
2021/05/12 05:27:20;;;;;;;;;;;23.40;40.40;;;;;;1610770;71;783;-55
2021/05/12 05:29:22;;;;;;;;;;;23.40;40.40;;;;;;1621507;72;773;-55
2021/05/12 05:31:24;;;;;;;;;;;23.40;40.30;;;;;;1605832;71;1953;-54
2021/05/12 05:33:26;;;;;;;;;;;23.40;40.50;;;;;;1619278;72;849;-56
2021/05/12 05:35:28;;;;;;;;;;;23.40;40.70;;;;;;1620277;71;777;-53
2021/05/12 05:37:30;;;;;;;;;;;23.50;40.90;;;;;;1609806;72;704;-56
2021/05/12 05:39:38;;;;;;;;;;;23.40;40.80;;;;;;1619012;71;1146;-55
2021/05/12 05:41:40;;;;;;;;;;;23.50;40.90;;;;;;1617384;72;687;-55
2021/05/12 05:43:42;;;;;;;;;;;23.50;40.90;;;;;;1619338;72;715;-53
2021/05/12 05:45:43;;;;;;;;;;;23.50;41.00;;;;;;1603277;71;705;-55
2021/05/12 05:47:45;;;;;;;;;;;23.60;41.00;;;;;;1621555;72;808;-54
2021/05/12 05:49:47;;;;;;;;;;;23.50;40.90;;;;;;1612117;71;1131;-53
2021/05/12 05:51:49;;;;;;;;;;;23.50;40.90;;;;;;1618459;72;1951;-55
2021/05/12 05:53:51;;;;;;;;;;;23.50;41.20;;;;;;1621349;71;776;-54
2021/05/12 05:55:53;;;;;;;;;;;23.50;41.50;;;;;;1626478;71;748;-52
2021/05/12 05:57:56;;;;;;;;;;;23.50;41.00;;;;;;1616830;72;679;-54
2021/05/12 05:59:58;;;;;;;;;;;23.40;40.80;;;;;;1622225;72;1138;-54
2021/05/12 06:02:01;;;;;;;;;;;23.40;41.10;;;;;;1625791;72;823;-56
2021/05/12 06:04:03;;;;;;;;;;;23.20;41.00;;;;;;1616389;71;866;-55
2021/05/12 06:06:05;;;;;;;;;;;23.40;41.20;;;;;;1604730;72;725;-55
2021/05/12 06:08:07;;;;;;;;;;;23.40;40.90;;;;;;1614655;72;1079;-56
2021/05/12 06:10:09;;;;;;;;;;;23.40;40.90;;;;;;1630527;72;1177;-55
2021/05/12 06:12:11;;;;;;;;;;;23.40;40.80;;;;;;1621418;71;1920;-55
2021/05/12 06:14:13;;;;;;;;;;;23.40;40.80;;;;;;1618413;72;738;-55
2021/05/12 06:16:16;;;;;;;;;;;23.40;40.70;;;;;;1607088;71;877;-54
2021/05/12 06:18:18;;;;;;;;;;;23.30;40.70;;;;;;1625064;72;686;-56
2021/05/12 06:20:20;;;;;;;;;;;23.40;40.40;;;;;;1629436;72;1136;-56
2021/05/12 06:22:22;;;;;;;;;;;23.30;40.50;;;;;;1617747;71;758;-57
2021/05/12 06:24:23;;;;;;;;;;;23.40;40.50;;;;;;1629620;72;771;-56
2021/05/12 06:26:25;;;;;;;;;;;23.30;40.60;;;;;;1627724;72;808;-56
2021/05/12 06:28:27;;;;;;;;;;;23.30;40.50;;;;;;1584255;73;832;-54
2021/05/12 06:30:29;;;;;;;;;;;23.30;40.50;;;;;;1608743;72;1071;-53
2021/05/12 06:32:31;;;;;;;;;;;23.20;40.40;;;;;;1612900;71;1935;-56
2021/05/12 06:34:34;;;;;;;;;;;23.20;40.30;;;;;;1606743;72;767;-56
2021/05/12 06:36:36;;;;;;;;;;;23.30;40.40;;;;;;1610663;71;802;-55
2021/05/12 06:38:38;;;;;;;;;;;23.20;40.30;;;;;;1615268;71;782;-56
2021/05/12 06:40:39;;;;;;;;;;;23.30;40.40;;;;;;1616935;72;1120;-57
2021/05/12 06:42:41;;;;;;;;;;;23.30;40.40;;;;;;1624080;72;752;-56
2021/05/12 06:44:43;;;;;;;;;;;23.30;40.40;;;;;;1625560;71;958;-56
2021/05/12 06:46:45;;;;;;;;;;;23.30;40.30;;;;;;1621921;72;705;-56
2021/05/12 06:48:47;;;;;;;;;;;23.20;40.30;;;;;;1616215;72;713;-56
2021/05/12 06:50:49;;;;;;;;;;;23.30;40.30;;;;;;1612030;71;1947;-55
2021/05/12 06:52:54;;;;;;;;;;;23.20;40.20;;;;;;1621622;72;821;-54
2021/05/12 06:54:56;;;;;;;;;;;23.20;40.20;;;;;;1622966;72;797;-55
2021/05/12 06:56:58;;;;;;;;;;;23.20;40.60;;;;;;1616156;71;783;-56
2021/05/12 06:58:59;;;;;;;;;;;23.20;41.00;;;;;;1621650;72;772;-56
2021/05/12 07:01:02;;;;;;;;;;;23.20;41.80;;;;;;1610899;72;1130;-56
2021/05/12 07:03:03;;;;;;;;;;;23.30;41.90;;;;;;1615243;72;819;-55
2021/05/12 07:05:05;;;;;;;;;;;23.30;42.10;;;;;;1611875;72;755;-53
2021/05/12 07:07:07;;;;;;;;;;;23.20;42.00;;;;;;1603966;71;735;-53
2021/05/12 07:09:09;;;;;;;;;;;23.30;42.10;;;;;;1602587;71;759;-57
2021/05/12 07:11:11;;;;;;;;;;;23.30;42.00;;;;;;1603090;72;1953;-56
2021/05/12 07:13:13;;;;;;;;;;;23.30;41.80;;;;;;1601853;71;856;-54
2021/05/12 07:15:15;;;;;;;;;;;23.30;41.80;;;;;;1594504;73;733;-54
2021/05/12 07:17:17;;;;;;;;;;;23.30;41.60;;;;;;1610421;72;774;-56
2021/05/12 07:19:19;;;;;;;;;;;23.30;41.50;;;;;;1624007;72;690;-56
2021/05/12 07:21:21;;;;;;;;;;;23.30;41.50;;;;;;1620491;72;1118;-56
2021/05/12 07:23:24;;;;;;;;;;;23.30;41.40;;;;;;1620313;72;742;-55
2021/05/12 07:25:25;;;;;;;;;;;23.30;41.30;;;;;;1617570;72;795;-57
2021/05/12 07:27:28;;;;;;;;;;;23.30;41.20;;;;;;1622975;72;755;-58
2021/05/12 07:29:30;;;;;;;;;;;23.30;41.30;;;;;;1604571;72;1115;-57
2021/05/12 07:31:32;;;;;;;;;;;23.40;41.20;;;;;;1611657;72;1937;-57
2021/05/12 07:33:34;;;;;;;;;;;23.30;41.20;;;;;;1622340;72;809;-55
2021/05/12 07:35:35;;;;;;;;;;;23.30;41.20;;;;;;1619333;72;740;-56
2021/05/12 07:37:37;;;;;;;;;;;23.30;41.10;;;;;;1620137;72;722;-55
2021/05/12 07:39:39;;;;;;;;;;;23.30;41.20;;;;;;1612949;72;1093;-57
2021/05/12 07:41:43;;;;;;;;;;;23.30;41.20;;;;;;1614131;72;731;-56
2021/05/12 07:43:45;;;;;;;;;;;23.20;41.10;;;;;;1621440;71;784;-55
2021/05/12 07:45:47;;;;;;;;;;;23.30;41.20;;;;;;1626510;71;705;-56
2021/05/12 07:47:49;;;;;;;;;;;23.20;41.00;;;;;;1622668;72;761;-56
2021/05/12 07:49:51;;;;;;;;;;;23.30;41.10;;;;;;1622587;72;1145;-56
2021/05/12 07:51:53;;;;;;;;;;;23.30;41.10;;;;;;1610228;71;1921;-54
2021/05/12 07:53:55;;;;;;;;;;;23.30;41.10;;;;;;1625437;71;773;-56
2021/05/12 07:55:56;;;;;;;;;;;23.30;41.10;;;;;;1630358;71;687;-54
2021/05/12 07:57:58;;;;;;;;;;;23.30;41.10;;;;;;1616502;72;725;-57
2021/05/12 08:00:02;;;;;;;;;;;23.20;41.00;;;;;;1620873;71;1126;-56
2021/05/12 08:02:04;;;;;;;;;;;23.20;41.00;;;;;;1619426;73;1891;-57
2021/05/12 08:04:06;;;;;;;;;;;23.30;41.00;;;;;;1627205;72;759;-56
2021/05/12 08:06:08;;;;;;;;;;;23.30;41.10;;;;;;1574930;72;219376;-72
2021/05/12 08:08:10;;;;;;;;;;;23.20;41.00;;;;;;1610168;73;746;-68
2021/05/12 08:10:12;;;;;;;;;;;23.20;41.00;;;;;;1609056;73;747;-68
2021/05/12 08:12:14;;;;;;;;;;;23.30;41.10;;;;;;1613913;73;1917;-68
2021/05/12 08:14:16;;;;;;;;;;;23.20;41.00;;;;;;1615352;72;743;-71
2021/05/12 08:16:17;;;;;;;;;;;23.30;41.20;;;;;;1607177;73;1160;-69
2021/05/12 08:18:19;;;;;;;;;;;23.30;41.30;;;;;;1607257;73;765;-68
2021/05/12 08:20:21;;;;;;;;;;;23.30;41.20;;;;;;1609437;73;726;-68
2021/05/12 08:22:23;;;;;;;;;;;23.20;41.10;;;;;;1614573;73;791;-68
2021/05/12 08:24:25;;;;;;;;;;;23.20;41.10;;;;;;1595066;73;774;-71
2021/05/12 08:26:28;;;;;;;;;;;23.30;41.10;;;;;;1552735;75;1156;-69
2021/05/12 08:28:30;;;;;;;;;;;23.20;41.00;;;;;;1560435;74;768;-69
2021/05/12 08:30:35;;;;;;;;;;;23.30;41.10;;;;;;1583710;74;770;-69
2021/05/12 08:32:36;;;;;;;;;;;23.20;41.00;;;;;;1601705;73;1933;-69
2021/05/12 08:34:38;;;;;;;;;;;23.20;41.00;;;;;;1600260;72;1130;-69
2021/05/12 08:36:39;;;;;;;;;;;23.20;41.00;;;;;;1607057;73;787;-69
2021/05/12 08:38:46;;;;;;;;;;;23.20;41.00;;;;;;1602558;73;761;-67
2021/05/12 08:40:45;;;;;;;;;;;23.20;41.00;;;;;;1604596;73;1543;-69
2021/05/12 08:42:47;;;;;;;;;;;23.20;41.00;;;;;;1600640;73;780;-69
2021/05/12 08:44:49;;;;;;;;;;;23.20;41.00;;;;;;1601710;73;1143;-68
2021/05/12 08:46:51;;;;;;;;;;;23.20;41.00;;;;;;1604803;73;710;-69
2021/05/12 08:48:53;;;;;;;;;;;23.20;41.00;;;;;;1600184;73;708;-69
2021/05/12 08:50:54;;;;;;;;;;;23.20;41.00;;;;;;1601751;73;726;-68
2021/05/12 08:52:56;;;;;;;;;;;23.20;41.00;;;;;;1598002;73;1938;-70
2021/05/12 08:54:58;;;;;;;;;;;23.20;41.10;;;;;;1600999;72;1141;-69
2021/05/12 08:57:00;;;;;;;;;;;23.20;41.10;;;;;;1602332;73;733;-68
2021/05/12 08:59:02;;;;;;;;;;;23.20;41.00;;;;;;1601695;73;771;-68
2021/05/12 09:01:04;;;;;;;;;;;23.20;41.10;;;;;;1601402;73;782;-67
2021/05/12 09:03:06;;;;;;;;;;;23.20;41.00;;;;;;1605839;73;672;-68
2021/05/12 09:05:08;;;;;;;;;;;23.20;41.00;;;;;;1605511;73;1124;-69
2021/05/12 09:07:10;;;;;;;;;;;23.20;40.90;;;;;;1605966;73;690;-73
2021/05/12 09:09:14;;;;;;;;;;;23.20;40.80;;;;;;1600335;73;747;-70
2021/05/12 09:11:15;;;;;;;;;;;23.30;41.00;;;;;;1599255;73;774;-67
2021/05/12 09:13:30;;;;;;;;;;;23.30;40.90;;;;;;1600341;73;1933;-71
2021/05/12 09:15:32;;;;;;;;;;;23.30;40.90;;;;;;1601296;73;1190;-69
2021/05/12 09:17:41;;;;;;;;;;;23.20;40.90;;;;;;1610105;73;703;-68
2021/05/12 09:19:43;;;;;;;;;;;23.20;40.80;;;;;;1598480;73;718;-69
2021/05/12 09:21:45;;;;;;;;;;;23.20;40.70;;;;;;1598934;73;732;-70
2021/05/12 09:23:47;;;;;;;;;;;23.20;40.80;;;;;;1607351;73;771;-70
2021/05/12 09:25:56;;;;;;;;;;;23.40;40.80;;;;;;1606486;72;1134;-70
2021/05/12 09:28:14;;;;;;;;;;;23.20;40.70;;;;;;1603999;73;716;-69
2021/05/12 09:30:22;;;;;;;;;;;23.30;40.80;;;;;;1604125;73;706;-67
2021/05/12 09:32:24;;;;;;;;;;;23.20;40.70;;;;;;1593847;73;2073;-71
2021/05/12 09:34:26;;;;;;;;;;;23.30;40.80;;;;;;1604120;73;814;-69
2021/05/12 09:36:29;;;;;;;;;;;23.20;40.70;;;;;;1607014;72;1184;-68
2021/05/12 09:38:31;;;;;;;;;;;23.20;40.70;;;;;;1609118;73;675;-71
2021/05/12 09:40:33;;;;;;;;;;;23.20;40.70;;;;;;1600542;73;810;-69
2021/05/12 09:42:36;;;;;;;;;;;23.20;40.60;;;;;;1603886;73;709;-71
2021/05/12 09:44:38;;;;;;;;;;;23.20;40.70;;;;;;1609739;72;1152;-69
2021/05/12 09:46:40;;;;;;;;;;;23.30;40.60;;;;;;1612417;73;675;-69
2021/05/12 09:48:44;;;;;;;;;;;23.20;40.70;;;;;;1609259;73;585;-68
2021/05/12 09:50:46;;;;;;;;;;;23.20;40.60;;;;;;1590159;73;1034;-71
2021/05/12 09:52:49;;;;;;;;;;;23.30;40.40;;;;;;1607068;73;1936;-73
2021/05/12 09:54:53;;;;;;;;;;;23.20;40.50;;;;;;1607098;72;1138;-69
2021/05/12 09:56:58;;;;;;;;;;;23.20;40.50;;;;;;1607365;73;950;-70
2021/05/12 09:59:00;;;;;;;;;;;23.20;40.50;;;;;;1604890;73;634;-69
2021/05/12 10:01:02;;;;;;;;;;;23.20;40.60;;;;;;1582526;75;1033;-68
2021/05/12 10:03:06;;;;;;;;;;;23.20;40.50;;;;;;1598782;73;724;-69
2021/05/12 10:05:09;;;;;;;;;;;23.20;40.50;;;;;;1593233;73;1128;-72
2021/05/12 10:07:20;;;;;;;;;;;23.20;40.50;;;;;;1561624;75;812;-72
2021/05/12 10:09:24;;;;;;;;;;;23.30;40.60;;;;;;1556586;75;681;-69
2021/05/12 10:11:26;;;;;;;;;;;23.20;40.50;;;;;;1568003;74;973;-70
2021/05/12 10:13:28;;;;;;;;;;;23.20;40.50;;;;;;1575262;74;1910;-69
2021/05/12 10:15:30;;;;;;;;;;;23.20;40.50;;;;;;1583588;74;1149;-71
2021/05/12 10:17:33;;;;;;;;;;;23.20;40.40;;;;;;1561665;74;779;-69
2021/05/12 10:19:35;;;;;;;;;;;23.20;40.50;;;;;;1563857;74;713;-72
2021/05/12 10:21:37;;;;;;;;;;;23.20;40.50;;;;;;1594123;74;757;-68
2021/05/12 10:23:39;;;;;;;;;;;23.20;40.50;;;;;;1583208;75;840;-69
2021/05/12 10:25:41;;;;;;;;;;;23.20;40.50;;;;;;1593290;73;1112;-69
2021/05/12 10:27:43;;;;;;;;;;;23.20;40.40;;;;;;1588356;73;635;-69
2021/05/12 10:29:48;;;;;;;;;;;23.20;40.50;;;;;;1592223;74;840;-70
2021/05/12 10:31:50;;;;;;;;;;;23.20;40.50;;;;;;1606861;73;782;-72
2021/05/12 10:33:52;;;;;;;;;;;23.30;40.50;;;;;;1607179;73;1940;-68
2021/05/12 10:35:54;;;;;;;;;;;23.20;40.50;;;;;;1607752;72;1192;-73
2021/05/12 10:37:56;;;;;;;;;;;23.20;40.50;;;;;;1582019;75;1112;-69
2021/05/12 10:40:02;;;;;;;;;;;23.20;40.40;;;;;;1608103;73;766;-68
2021/05/12 10:42:04;;;;;;;;;;;23.20;40.40;;;;;;1607245;73;967;-70
2021/05/12 10:44:18;;;;;;;;;;;23.20;40.50;;;;;;1606119;73;733;-69
2021/05/12 10:46:17;;;;;;;;;;;23.10;40.50;;;;;;1604884;73;1509;-69
2021/05/12 10:48:33;;;;;;;;;;;23.20;40.50;;;;;;1604612;73;793;-68
2021/05/12 10:50:45;;;;;;;;;;;23.20;40.50;;;;;;1606884;73;750;-71
2021/05/12 10:53:05;;;;;;;;;;;23.20;40.50;;;;;;1612406;73;1944;-68
2021/05/12 10:55:07;;;;;;;;;;;23.20;40.50;;;;;;1604723;73;1130;-69
2021/05/12 10:57:09;;;;;;;;;;;23.20;40.50;;;;;;1597333;73;762;-67
2021/05/12 10:59:11;;;;;;;;;;;23.20;40.50;;;;;;1607867;73;710;-67
2021/05/12 11:01:13;;;;;;;;;;;23.20;40.40;;;;;;1606469;73;672;-67
2021/05/12 11:03:15;;;;;;;;;;;23.20;40.50;;;;;;1601696;73;796;-71
2021/05/12 11:05:17;;;;;;;;;;;23.20;40.30;;;;;;1598640;72;1131;-67
2021/05/12 11:07:19;;;;;;;;;;;23.20;40.20;;;;;;1598737;73;794;-66
2021/05/12 11:09:22;;;;;;;;;;;23.20;40.20;;;;;;1595118;73;800;-70
2021/05/12 11:11:24;;;;;;;;;;;23.20;40.20;;;;;;1612612;73;885;-67
2021/05/12 11:13:27;;;;;;;;;;;23.30;40.30;;;;;;1608082;73;1937;-67
2021/05/12 11:15:30;;;;;;;;;;;23.20;40.20;;;;;;1599859;72;1158;-67
2021/05/12 11:17:42;;;;;;;;;;;23.20;40.40;;;;;;1591904;73;1097;-65
2021/05/12 11:19:50;;;;;;;;;;;23.20;40.50;;;;;;1598440;73;762;-66
2021/05/12 11:21:52;;;;;;;;;;;23.30;41.00;;;;;;1600867;73;676;-66
2021/05/12 11:24:08;;;;;;;;;;;23.20;41.30;;;;;;1603326;72;799;-68
2021/05/12 11:26:29;;;;;;;;;;;23.20;41.50;;;;;;1605629;73;1118;-67
2021/05/12 11:29:00;;;;;;;;;;;23.20;42.00;;;;;;1608214;73;1634;-68
2021/05/12 11:33:07;;;;;;;;;;;23.10;42.30;;;;;;1607290;73;1900;-66
2021/05/12 11:35:12;;;;;;;;;;;23.10;42.60;;;;;;1602298;73;1163;-65
2021/05/12 11:37:18;;;;;;;;;;;23.20;42.40;;;;;;1609186;73;1782;-75
2021/05/12 11:39:19;;;;;;;;;;;23.10;41.00;;;;;;1598194;73;1142;-68
2021/05/12 11:41:23;;;;;;;;;;;23.10;41.10;;;;;;1594085;73;1860;-68
2021/05/12 11:43:43;;;;;;;;;;;23.10;41.50;;;;;;1609906;72;984;-70
2021/05/12 11:45:45;;;;;;;;;;;23.10;41.70;;;;;;1612753;73;1143;-68
2021/05/12 11:48:02;;;;;;;;;;;23.20;41.80;;;;;;1612201;73;671;-69
2021/05/12 11:50:04;;;;;;;;;;;23.20;41.80;;;;;;1608274;73;1593;-70
2021/05/12 11:52:06;;;;;;;;;;;23.30;41.90;;;;;;1601624;73;772;-68
2021/05/12 11:54:18;;;;;;;;;;;23.20;41.80;;;;;;1604747;73;1941;-68
2021/05/12 11:56:20;;;;;;;;;;;23.20;41.80;;;;;;1609802;72;1170;-67
2021/05/12 11:58:23;;;;;;;;;;;23.20;41.70;;;;;;1610535;73;677;-68
2021/05/12 12:00:28;;;;;;;;;;;23.20;41.70;;;;;;1608769;73;744;-68
2021/05/12 12:02:30;;;;;;;;;;;23.20;41.70;;;;;;1609057;73;734;-68
2021/05/12 12:04:36;;;;;;;;;;;23.20;41.60;;;;;;1605304;73;1131;-68
2021/05/12 12:06:40;;;;;;;;;;;23.20;41.60;;;;;;1612289;73;792;-67
2021/05/12 12:08:42;;;;;;;;;;;23.20;41.50;;;;;;1599417;73;1851;-68
2021/05/12 12:10:44;;;;;;;;;;;23.20;41.50;;;;;;1604752;73;1146;-68
2021/05/12 12:13:01;;;;;;;;;;;23.20;41.50;;;;;;1611435;73;1943;-68
2021/05/12 12:15:09;;;;;;;;;;;23.20;41.40;;;;;;1609599;72;1196;-68